sensor_id;sensor_type;location;lat;lon;timestamp;temperature;humidity
37646;DHT22;23489;49.600;6.138;2022-12-18T00:01:57;-7.90;99.90
37646;DHT22;23489;49.600;6.138;2022-12-18T00:04:25;-7.90;99.90
37646;DHT22;23489;49.600;6.138;2022-12-18T00:06:51;-7.90;99.90
37646;DHT22;23489;49.600;6.138;2022-12-18T00:09:17;-7.80;99.90
37646;DHT22;23489;49.600;6.138;2022-12-18T00:11:43;-7.90;99.90
37646;DHT22;23489;49.600;6.138;2022-12-18T00:14:10;-7.90;99.90
37646;DHT22;23489;49.600;6.138;2022-12-18T00:16:36;-7.80;99.90
37646;DHT22;23489;49.600;6.138;2022-12-18T00:19:03;-7.80;99.90
37646;DHT22;23489;49.600;6.138;2022-12-18T00:21:30;-7.80;99.90
37646;DHT22;23489;49.600;6.138;2022-12-18T00:23:57;-7.80;99.90
37646;DHT22;23489;49.600;6.138;2022-12-18T00:26:25;-7.70;99.90
37646;DHT22;23489;49.600;6.138;2022-12-18T00:29:02;-7.80;99.90
37646;DHT22;23489;49.600;6.138;2022-12-18T00:31:30;-7.80;99.90
37646;DHT22;23489;49.600;6.138;2022-12-18T00:33:56;-7.80;99.90
37646;DHT22;23489;49.600;6.138;2022-12-18T00:36:27;-7.80;99.90
37646;DHT22;23489;49.600;6.138;2022-12-18T00:38:54;-7.80;99.90
37646;DHT22;23489;49.600;6.138;2022-12-18T00:41:21;-7.80;99.90
37646;DHT22;23489;49.600;6.138;2022-12-18T00:44:06;-7.80;99.90
37646;DHT22;23489;49.600;6.138;2022-12-18T00:46:33;-7.80;99.90
37646;DHT22;23489;49.600;6.138;2022-12-18T00:48:58;-7.70;99.90
37646;DHT22;23489;49.600;6.138;2022-12-18T00:51:24;-7.80;99.90
37646;DHT22;23489;49.600;6.138;2022-12-18T00:53:51;-7.70;99.90
37646;DHT22;23489;49.600;6.138;2022-12-18T00:56:16;-7.70;99.90
37646;DHT22;23489;49.600;6.138;2022-12-18T00:58:42;-7.70;99.90
37646;DHT22;23489;49.600;6.138;2022-12-18T01:01:07;-7.70;99.90
37646;DHT22;23489;49.600;6.138;2022-12-18T01:03:34;-7.70;99.90
37646;DHT22;23489;49.600;6.138;2022-12-18T01:06:04;-7.70;99.90
37646;DHT22;23489;49.600;6.138;2022-12-18T01:08:30;-7.70;99.90
37646;DHT22;23489;49.600;6.138;2022-12-18T01:10:55;-7.80;99.90
37646;DHT22;23489;49.600;6.138;2022-12-18T01:13:21;-7.80;99.90
37646;DHT22;23489;49.600;6.138;2022-12-18T01:15:49;-7.80;99.90
37646;DHT22;23489;49.600;6.138;2022-12-18T01:18:16;-7.80;99.90
37646;DHT22;23489;49.600;6.138;2022-12-18T01:20:41;-7.80;99.90
37646;DHT22;23489;49.600;6.138;2022-12-18T01:23:07;-7.80;99.90
37646;DHT22;23489;49.600;6.138;2022-12-18T01:25:35;-7.80;99.90
37646;DHT22;23489;49.600;6.138;2022-12-18T01:28:02;-7.90;99.90
37646;DHT22;23489;49.600;6.138;2022-12-18T01:30:27;-7.90;99.90
37646;DHT22;23489;49.600;6.138;2022-12-18T01:32:53;-7.90;99.90
37646;DHT22;23489;49.600;6.138;2022-12-18T01:35:19;-7.90;99.90
37646;DHT22;23489;49.600;6.138;2022-12-18T01:37:45;-7.90;99.90
37646;DHT22;23489;49.600;6.138;2022-12-18T01:40:11;-8.00;99.90
37646;DHT22;23489;49.600;6.138;2022-12-18T01:42:38;-8.00;99.90
37646;DHT22;23489;49.600;6.138;2022-12-18T01:47:46;-8.10;99.90
37646;DHT22;23489;49.600;6.138;2022-12-18T01:50:22;-8.10;99.90
37646;DHT22;23489;49.600;6.138;2022-12-18T01:52:55;-8.10;99.90
37646;DHT22;23489;49.600;6.138;2022-12-18T01:55:25;-8.10;99.90
37646;DHT22;23489;49.600;6.138;2022-12-18T01:57:54;-8.10;99.90
37646;DHT22;23489;49.600;6.138;2022-12-18T02:00:21;-8.10;99.90
37646;DHT22;23489;49.600;6.138;2022-12-18T02:02:48;-8.20;99.90
37646;DHT22;23489;49.600;6.138;2022-12-18T02:05:17;-8.20;99.90
37646;DHT22;23489;49.600;6.138;2022-12-18T02:10:48;-8.30;99.90
37646;DHT22;23489;49.600;6.138;2022-12-18T02:13:41;-8.30;99.90
37646;DHT22;23489;49.600;6.138;2022-12-18T02:28:12;-8.30;99.90
37646;DHT22;23489;49.600;6.138;2022-12-18T02:30:39;-8.20;99.90
37646;DHT22;23489;49.600;6.138;2022-12-18T02:33:07;-8.20;99.90
37646;DHT22;23489;49.600;6.138;2022-12-18T02:35:34;-8.20;99.90
37646;DHT22;23489;49.600;6.138;2022-12-18T02:38:03;-8.20;99.90
37646;DHT22;23489;49.600;6.138;2022-12-18T02:40:32;-8.30;99.90
37646;DHT22;23489;49.600;6.138;2022-12-18T02:43:10;-8.30;99.90
37646;DHT22;23489;49.600;6.138;2022-12-18T02:45:47;-8.30;99.90
37646;DHT22;23489;49.600;6.138;2022-12-18T02:48:14;-8.40;99.90
37646;DHT22;23489;49.600;6.138;2022-12-18T02:50:59;-8.30;99.90
37646;DHT22;23489;49.600;6.138;2022-12-18T02:53:36;-8.30;99.90
37646;DHT22;23489;49.600;6.138;2022-12-18T02:58:47;-8.40;99.90
37646;DHT22;23489;49.600;6.138;2022-12-18T03:01:38;-8.40;99.90
37646;DHT22;23489;49.600;6.138;2022-12-18T03:04:18;-8.40;99.90
37646;DHT22;23489;49.600;6.138;2022-12-18T03:06:49;-8.40;99.90
37646;DHT22;23489;49.600;6.138;2022-12-18T03:09:33;-8.40;99.90
37646;DHT22;23489;49.600;6.138;2022-12-18T03:12:06;-8.30;99.90
37646;DHT22;23489;49.600;6.138;2022-12-18T03:15:03;-8.30;99.90
37646;DHT22;23489;49.600;6.138;2022-12-18T03:17:32;-8.30;99.90
37646;DHT22;23489;49.600;6.138;2022-12-18T03:20:04;-8.30;99.90
37646;DHT22;23489;49.600;6.138;2022-12-18T03:22:33;-8.30;99.90
37646;DHT22;23489;49.600;6.138;2022-12-18T03:25:03;-8.30;99.90
37646;DHT22;23489;49.600;6.138;2022-12-18T03:27:31;-8.30;99.90
37646;DHT22;23489;49.600;6.138;2022-12-18T03:30:08;-8.20;99.90
37646;DHT22;23489;49.600;6.138;2022-12-18T03:32:59;-8.20;99.90
37646;DHT22;23489;49.600;6.138;2022-12-18T03:35:32;-8.30;99.90
37646;DHT22;23489;49.600;6.138;2022-12-18T03:37:59;-8.30;99.90
37646;DHT22;23489;49.600;6.138;2022-12-18T03:41:10;-8.40;99.90
37646;DHT22;23489;49.600;6.138;2022-12-18T03:46:58;-8.50;99.90
37646;DHT22;23489;49.600;6.138;2022-12-18T03:49:38;-8.50;99.90
37646;DHT22;23489;49.600;6.138;2022-12-18T03:52:10;-8.60;99.90
37646;DHT22;23489;49.600;6.138;2022-12-18T03:54:40;-8.60;99.90
37646;DHT22;23489;49.600;6.138;2022-12-18T03:57:19;-8.60;99.90
37646;DHT22;23489;49.600;6.138;2022-12-18T03:59:50;-8.60;99.90
37646;DHT22;23489;49.600;6.138;2022-12-18T04:02:22;-8.60;99.90
37646;DHT22;23489;49.600;6.138;2022-12-18T04:04:55;-8.70;99.90
37646;DHT22;23489;49.600;6.138;2022-12-18T04:07:23;-8.70;99.90
37646;DHT22;23489;49.600;6.138;2022-12-18T04:09:50;-8.70;99.90
37646;DHT22;23489;49.600;6.138;2022-12-18T04:12:17;-8.80;99.90
37646;DHT22;23489;49.600;6.138;2022-12-18T04:14:45;-8.80;99.90
37646;DHT22;23489;49.600;6.138;2022-12-18T04:17:10;-8.80;99.90
37646;DHT22;23489;49.600;6.138;2022-12-18T04:19:36;-8.90;99.90
37646;DHT22;23489;49.600;6.138;2022-12-18T04:22:03;-8.90;99.90
37646;DHT22;23489;49.600;6.138;2022-12-18T04:24:34;-8.90;99.90
37646;DHT22;23489;49.600;6.138;2022-12-18T04:27:09;-8.80;99.90
37646;DHT22;23489;49.600;6.138;2022-12-18T04:29:41;-8.90;99.90
37646;DHT22;23489;49.600;6.138;2022-12-18T04:32:08;-8.80;99.90
37646;DHT22;23489;49.600;6.138;2022-12-18T04:34:34;-8.80;99.90
37646;DHT22;23489;49.600;6.138;2022-12-18T04:36:59;-8.80;99.90
37646;DHT22;23489;49.600;6.138;2022-12-18T04:39:25;-8.80;99.90
37646;DHT22;23489;49.600;6.138;2022-12-18T04:41:54;-8.80;99.90
37646;DHT22;23489;49.600;6.138;2022-12-18T04:44:19;-8.80;99.90
37646;DHT22;23489;49.600;6.138;2022-12-18T04:46:45;-8.70;99.90
37646;DHT22;23489;49.600;6.138;2022-12-18T04:49:11;-8.70;99.90
37646;DHT22;23489;49.600;6.138;2022-12-18T04:51:37;-8.70;99.90
37646;DHT22;23489;49.600;6.138;2022-12-18T04:54:02;-8.60;99.90
37646;DHT22;23489;49.600;6.138;2022-12-18T04:56:30;-8.60;99.90
37646;DHT22;23489;49.600;6.138;2022-12-18T04:58:56;-8.50;99.90
37646;DHT22;23489;49.600;6.138;2022-12-18T05:01:21;-8.50;99.90
37646;DHT22;23489;49.600;6.138;2022-12-18T05:03:47;-8.50;99.90
37646;DHT22;23489;49.600;6.138;2022-12-18T05:06:13;-8.60;99.90
37646;DHT22;23489;49.600;6.138;2022-12-18T05:08:39;-8.60;99.90
37646;DHT22;23489;49.600;6.138;2022-12-18T05:11:07;-8.60;99.90
37646;DHT22;23489;49.600;6.138;2022-12-18T05:13:33;-8.50;99.90
37646;DHT22;23489;49.600;6.138;2022-12-18T05:15:59;-8.50;99.90
37646;DHT22;23489;49.600;6.138;2022-12-18T05:18:25;-8.50;99.90
37646;DHT22;23489;49.600;6.138;2022-12-18T05:20:53;-8.40;99.90
37646;DHT22;23489;49.600;6.138;2022-12-18T05:23:20;-8.30;99.90
37646;DHT22;23489;49.600;6.138;2022-12-18T05:25:54;-8.20;99.90
37646;DHT22;23489;49.600;6.138;2022-12-18T05:28:20;-8.20;99.90
37646;DHT22;23489;49.600;6.138;2022-12-18T05:30:50;-8.10;99.90
37646;DHT22;23489;49.600;6.138;2022-12-18T05:33:17;-8.00;99.90
37646;DHT22;23489;49.600;6.138;2022-12-18T05:35:43;-8.00;99.90
37646;DHT22;23489;49.600;6.138;2022-12-18T05:38:09;-7.90;99.90
37646;DHT22;23489;49.600;6.138;2022-12-18T05:40:35;-7.90;99.90
37646;DHT22;23489;49.600;6.138;2022-12-18T05:43:02;-7.80;99.90
37646;DHT22;23489;49.600;6.138;2022-12-18T05:45:27;-7.80;99.90
37646;DHT22;23489;49.600;6.138;2022-12-18T05:47:53;-7.70;99.90
37646;DHT22;23489;49.600;6.138;2022-12-18T05:50:19;-7.70;99.90
37646;DHT22;23489;49.600;6.138;2022-12-18T05:52:44;-7.70;99.90
37646;DHT22;23489;49.600;6.138;2022-12-18T05:55:10;-7.70;99.90
37646;DHT22;23489;49.600;6.138;2022-12-18T05:57:35;-7.80;99.90
37646;DHT22;23489;49.600;6.138;2022-12-18T06:00:02;-7.70;99.90
37646;DHT22;23489;49.600;6.138;2022-12-18T06:02:37;-7.70;99.90
37646;DHT22;23489;49.600;6.138;2022-12-18T06:05:03;-7.80;99.90
37646;DHT22;23489;49.600;6.138;2022-12-18T06:07:29;-7.80;99.90
37646;DHT22;23489;49.600;6.138;2022-12-18T06:09:54;-7.90;99.90
37646;DHT22;23489;49.600;6.138;2022-12-18T06:12:20;-8.00;99.90
37646;DHT22;23489;49.600;6.138;2022-12-18T06:14:46;-8.00;99.90
37646;DHT22;23489;49.600;6.138;2022-12-18T06:17:12;-8.10;99.90
37646;DHT22;23489;49.600;6.138;2022-12-18T06:19:37;-8.20;99.90
37646;DHT22;23489;49.600;6.138;2022-12-18T06:22:03;-8.20;99.90
37646;DHT22;23489;49.600;6.138;2022-12-18T06:24:29;-8.30;99.90
37646;DHT22;23489;49.600;6.138;2022-12-18T06:26:55;-8.30;99.90
37646;DHT22;23489;49.600;6.138;2022-12-18T06:29:21;-8.40;99.90
37646;DHT22;23489;49.600;6.138;2022-12-18T06:31:47;-8.40;99.90
37646;DHT22;23489;49.600;6.138;2022-12-18T06:34:12;-8.40;99.90
37646;DHT22;23489;49.600;6.138;2022-12-18T06:36:38;-8.30;99.90
37646;DHT22;23489;49.600;6.138;2022-12-18T06:39:03;-8.30;99.90
37646;DHT22;23489;49.600;6.138;2022-12-18T06:41:29;-8.30;99.90
37646;DHT22;23489;49.600;6.138;2022-12-18T06:43:55;-8.20;99.90
37646;DHT22;23489;49.600;6.138;2022-12-18T06:46:21;-8.20;99.90
37646;DHT22;23489;49.600;6.138;2022-12-18T06:48:47;-8.20;99.90
37646;DHT22;23489;49.600;6.138;2022-12-18T06:51:20;-8.20;99.90
37646;DHT22;23489;49.600;6.138;2022-12-18T06:53:46;-8.20;99.90
37646;DHT22;23489;49.600;6.138;2022-12-18T06:56:11;-8.20;99.90
37646;DHT22;23489;49.600;6.138;2022-12-18T06:58:38;-8.20;99.90
37646;DHT22;23489;49.600;6.138;2022-12-18T07:01:07;-8.20;99.90
37646;DHT22;23489;49.600;6.138;2022-12-18T07:03:33;-8.20;99.90
37646;DHT22;23489;49.600;6.138;2022-12-18T07:05:59;-8.20;99.90
37646;DHT22;23489;49.600;6.138;2022-12-18T07:08:25;-8.20;99.90
37646;DHT22;23489;49.600;6.138;2022-12-18T07:10:50;-8.10;99.90
37646;DHT22;23489;49.600;6.138;2022-12-18T07:13:17;-8.00;99.90
37646;DHT22;23489;49.600;6.138;2022-12-18T07:15:43;-7.90;99.90
37646;DHT22;23489;49.600;6.138;2022-12-18T07:18:09;-7.90;99.90
37646;DHT22;23489;49.600;6.138;2022-12-18T07:20:35;-7.90;99.90
37646;DHT22;23489;49.600;6.138;2022-12-18T07:23:04;-7.90;99.90
37646;DHT22;23489;49.600;6.138;2022-12-18T07:25:36;-7.90;99.90
37646;DHT22;23489;49.600;6.138;2022-12-18T07:28:02;-7.90;99.90
37646;DHT22;23489;49.600;6.138;2022-12-18T07:30:28;-7.90;99.90
37646;DHT22;23489;49.600;6.138;2022-12-18T07:32:54;-7.90;99.90
37646;DHT22;23489;49.600;6.138;2022-12-18T07:35:19;-7.90;99.90
37646;DHT22;23489;49.600;6.138;2022-12-18T07:37:45;-7.90;99.90
37646;DHT22;23489;49.600;6.138;2022-12-18T07:40:11;-7.80;99.90
37646;DHT22;23489;49.600;6.138;2022-12-18T07:42:37;-7.80;99.90
37646;DHT22;23489;49.600;6.138;2022-12-18T07:45:03;-7.80;99.90
37646;DHT22;23489;49.600;6.138;2022-12-18T07:47:29;-7.70;99.90
37646;DHT22;23489;49.600;6.138;2022-12-18T07:49:56;-7.70;99.90
37646;DHT22;23489;49.600;6.138;2022-12-18T07:52:22;-7.60;99.90
37646;DHT22;23489;49.600;6.138;2022-12-18T07:54:47;-7.60;99.90
37646;DHT22;23489;49.600;6.138;2022-12-18T07:57:16;-7.50;99.90
37646;DHT22;23489;49.600;6.138;2022-12-18T07:59:42;-7.40;99.90
37646;DHT22;23489;49.600;6.138;2022-12-18T08:02:08;-7.40;99.90
37646;DHT22;23489;49.600;6.138;2022-12-18T08:04:35;-7.40;99.90
37646;DHT22;23489;49.600;6.138;2022-12-18T08:07:00;-7.30;99.90
37646;DHT22;23489;49.600;6.138;2022-12-18T08:09:26;-7.20;99.90
37646;DHT22;23489;49.600;6.138;2022-12-18T08:11:51;-7.20;99.90
37646;DHT22;23489;49.600;6.138;2022-12-18T08:14:17;-7.20;99.90
37646;DHT22;23489;49.600;6.138;2022-12-18T08:16:43;-7.20;99.90
37646;DHT22;23489;49.600;6.138;2022-12-18T08:19:08;-7.20;99.90
37646;DHT22;23489;49.600;6.138;2022-12-18T08:21:34;-7.20;99.90
37646;DHT22;23489;49.600;6.138;2022-12-18T08:24:00;-7.20;99.90
37646;DHT22;23489;49.600;6.138;2022-12-18T08:26:29;-7.20;99.90
37646;DHT22;23489;49.600;6.138;2022-12-18T08:28:55;-7.20;99.90
37646;DHT22;23489;49.600;6.138;2022-12-18T08:31:22;-7.20;99.90
37646;DHT22;23489;49.600;6.138;2022-12-18T08:33:49;-7.10;99.90
37646;DHT22;23489;49.600;6.138;2022-12-18T08:36:15;-7.10;99.90
37646;DHT22;23489;49.600;6.138;2022-12-18T08:38:41;-7.10;99.90
37646;DHT22;23489;49.600;6.138;2022-12-18T08:41:09;-7.10;99.90
37646;DHT22;23489;49.600;6.138;2022-12-18T08:43:35;-7.00;99.90
37646;DHT22;23489;49.600;6.138;2022-12-18T08:46:20;-7.00;99.90
37646;DHT22;23489;49.600;6.138;2022-12-18T08:48:47;-6.90;99.90
37646;DHT22;23489;49.600;6.138;2022-12-18T08:51:13;-6.80;99.90
37646;DHT22;23489;49.600;6.138;2022-12-18T08:53:40;-6.80;99.90
37646;DHT22;23489;49.600;6.138;2022-12-18T08:56:07;-6.60;99.90
37646;DHT22;23489;49.600;6.138;2022-12-18T08:58:32;-6.60;99.90
37646;DHT22;23489;49.600;6.138;2022-12-18T09:01:00;-6.50;99.90
37646;DHT22;23489;49.600;6.138;2022-12-18T09:03:26;-6.40;99.90
37646;DHT22;23489;49.600;6.138;2022-12-18T09:05:52;-6.30;99.90
37646;DHT22;23489;49.600;6.138;2022-12-18T09:08:18;-6.30;99.90
37646;DHT22;23489;49.600;6.138;2022-12-18T09:10:45;-6.20;99.90
37646;DHT22;23489;49.600;6.138;2022-12-18T09:13:11;-6.10;99.90
37646;DHT22;23489;49.600;6.138;2022-12-18T09:15:52;-6.00;99.90
37646;DHT22;23489;49.600;6.138;2022-12-18T09:18:19;-5.90;99.90
37646;DHT22;23489;49.600;6.138;2022-12-18T09:20:45;-5.90;99.90
37646;DHT22;23489;49.600;6.138;2022-12-18T09:23:12;-5.70;99.90
37646;DHT22;23489;49.600;6.138;2022-12-18T09:25:38;-5.50;99.90
37646;DHT22;23489;49.600;6.138;2022-12-18T09:28:09;-5.40;99.90
37646;DHT22;23489;49.600;6.138;2022-12-18T09:30:37;-5.30;99.90
37646;DHT22;23489;49.600;6.138;2022-12-18T09:33:03;-5.40;99.90
37646;DHT22;23489;49.600;6.138;2022-12-18T09:35:29;-5.60;99.90
37646;DHT22;23489;49.600;6.138;2022-12-18T09:37:54;-5.60;99.90
37646;DHT22;23489;49.600;6.138;2022-12-18T09:40:23;-5.60;99.90
37646;DHT22;23489;49.600;6.138;2022-12-18T09:42:57;-5.60;99.90
37646;DHT22;23489;49.600;6.138;2022-12-18T09:45:24;-5.50;99.90
37646;DHT22;23489;49.600;6.138;2022-12-18T09:47:52;-5.40;99.90
37646;DHT22;23489;49.600;6.138;2022-12-18T09:50:31;-5.50;99.90
37646;DHT22;23489;49.600;6.138;2022-12-18T09:53:02;-5.40;99.90
37646;DHT22;23489;49.600;6.138;2022-12-18T09:55:42;-5.30;99.90
37646;DHT22;23489;49.600;6.138;2022-12-18T09:58:14;-5.20;99.90
37646;DHT22;23489;49.600;6.138;2022-12-18T10:00:42;-5.10;99.90
37646;DHT22;23489;49.600;6.138;2022-12-18T10:03:12;-5.10;99.90
37646;DHT22;23489;49.600;6.138;2022-12-18T10:06:02;-4.90;99.90
37646;DHT22;23489;49.600;6.138;2022-12-18T10:11:22;-4.70;99.90
37646;DHT22;23489;49.600;6.138;2022-12-18T10:14:02;-4.60;99.90
37646;DHT22;23489;49.600;6.138;2022-12-18T10:16:59;-4.50;99.90
37646;DHT22;23489;49.600;6.138;2022-12-18T10:25:36;-4.50;99.90
37646;DHT22;23489;49.600;6.138;2022-12-18T10:28:13;-4.50;99.90
37646;DHT22;23489;49.600;6.138;2022-12-18T10:30:40;-4.50;99.90
37646;DHT22;23489;49.600;6.138;2022-12-18T10:33:08;-4.50;99.90
37646;DHT22;23489;49.600;6.138;2022-12-18T10:35:36;-4.50;99.90
37646;DHT22;23489;49.600;6.138;2022-12-18T10:43:21;-4.40;99.90
37646;DHT22;23489;49.600;6.138;2022-12-18T10:46:01;-4.40;99.90
37646;DHT22;23489;49.600;6.138;2022-12-18T10:48:28;-4.30;99.90
37646;DHT22;23489;49.600;6.138;2022-12-18T10:50:55;-4.30;99.90
37646;DHT22;23489;49.600;6.138;2022-12-18T10:53:24;-4.30;99.90
37646;DHT22;23489;49.600;6.138;2022-12-18T10:55:53;-4.40;99.90
37646;DHT22;23489;49.600;6.138;2022-12-18T10:58:29;-4.40;99.90
37646;DHT22;23489;49.600;6.138;2022-12-18T11:01:13;-4.60;99.90
37646;DHT22;23489;49.600;6.138;2022-12-18T11:03:44;-4.60;99.90
37646;DHT22;23489;49.600;6.138;2022-12-18T11:06:15;-4.60;99.90
37646;DHT22;23489;49.600;6.138;2022-12-18T11:08:44;-4.80;99.90
37646;DHT22;23489;49.600;6.138;2022-12-18T11:11:23;-4.80;99.90
37646;DHT22;23489;49.600;6.138;2022-12-18T11:14:17;-4.70;99.90
37646;DHT22;23489;49.600;6.138;2022-12-18T11:16:46;-4.60;99.90
37646;DHT22;23489;49.600;6.138;2022-12-18T11:19:34;-4.50;99.90
37646;DHT22;23489;49.600;6.138;2022-12-18T11:22:04;-4.30;99.90
37646;DHT22;23489;49.600;6.138;2022-12-18T11:24:50;-4.20;99.90
37646;DHT22;23489;49.600;6.138;2022-12-18T11:27:18;-4.10;99.90
37646;DHT22;23489;49.600;6.138;2022-12-18T11:29:44;-4.10;99.90
37646;DHT22;23489;49.600;6.138;2022-12-18T11:35:15;-3.80;99.90
37646;DHT22;23489;49.600;6.138;2022-12-18T11:37:44;-3.70;99.90
37646;DHT22;23489;49.600;6.138;2022-12-18T11:40:18;-3.70;99.90
37646;DHT22;23489;49.600;6.138;2022-12-18T11:42:56;-3.70;99.90
37646;DHT22;23489;49.600;6.138;2022-12-18T11:45:29;-3.70;99.90
37646;DHT22;23489;49.600;6.138;2022-12-18T11:50:40;-3.80;99.90
37646;DHT22;23489;49.600;6.138;2022-12-18T11:53:12;-3.80;99.90
37646;DHT22;23489;49.600;6.138;2022-12-18T11:56:05;-3.60;99.90
37646;DHT22;23489;49.600;6.138;2022-12-18T11:58:51;-3.40;99.90
37646;DHT22;23489;49.600;6.138;2022-12-18T12:01:46;-3.40;99.90
37646;DHT22;23489;49.600;6.138;2022-12-18T12:04:25;-3.50;99.90
37646;DHT22;23489;49.600;6.138;2022-12-18T12:21:00;-3.70;99.90
37646;DHT22;23489;49.600;6.138;2022-12-18T12:23:41;-3.80;99.90
37646;DHT22;23489;49.600;6.138;2022-12-18T12:26:21;-3.80;99.90
37646;DHT22;23489;49.600;6.138;2022-12-18T12:32:02;-3.60;99.90
37646;DHT22;23489;49.600;6.138;2022-12-18T12:38:04;-3.50;99.90
37646;DHT22;23489;49.600;6.138;2022-12-18T12:40:35;-3.40;99.90
37646;DHT22;23489;49.600;6.138;2022-12-18T12:43:33;-3.40;99.90
37646;DHT22;23489;49.600;6.138;2022-12-18T12:46:06;-3.50;99.90
37646;DHT22;23489;49.600;6.138;2022-12-18T12:48:50;-3.50;99.90
37646;DHT22;23489;49.600;6.138;2022-12-18T12:51:29;-3.50;99.90
37646;DHT22;23489;49.600;6.138;2022-12-18T12:53:57;-3.60;99.90
37646;DHT22;23489;49.600;6.138;2022-12-18T12:56:32;-3.50;99.90
37646;DHT22;23489;49.600;6.138;2022-12-18T12:59:31;-3.50;99.90
37646;DHT22;23489;49.600;6.138;2022-12-18T13:04:57;-3.40;99.90
37646;DHT22;23489;49.600;6.138;2022-12-18T13:07:35;-3.30;99.90
37646;DHT22;23489;49.600;6.138;2022-12-18T13:15:48;-3.20;99.90
37646;DHT22;23489;49.600;6.138;2022-12-18T13:18:23;-3.30;99.90
37646;DHT22;23489;49.600;6.138;2022-12-18T13:25:50;-3.60;99.90
37646;DHT22;23489;49.600;6.138;2022-12-18T13:28:50;-3.70;99.90
37646;DHT22;23489;49.600;6.138;2022-12-18T13:31:06;-3.80;99.90
37646;DHT22;23489;49.600;6.138;2022-12-18T13:36:25;-3.80;99.90
37646;DHT22;23489;49.600;6.138;2022-12-18T13:41:39;-3.80;99.90
37646;DHT22;23489;49.600;6.138;2022-12-18T13:44:12;-3.80;99.90
37646;DHT22;23489;49.600;6.138;2022-12-18T13:46:45;-3.80;99.90
37646;DHT22;23489;49.600;6.138;2022-12-18T13:51:49;-3.90;99.90
37646;DHT22;23489;49.600;6.138;2022-12-18T13:54:33;-3.90;99.90
37646;DHT22;23489;49.600;6.138;2022-12-18T13:57:00;-3.90;99.90
37646;DHT22;23489;49.600;6.138;2022-12-18T13:59:33;-3.90;99.90
37646;DHT22;23489;49.600;6.138;2022-12-18T14:02:12;-3.80;99.90
37646;DHT22;23489;49.600;6.138;2022-12-18T14:04:38;-3.80;99.90
37646;DHT22;23489;49.600;6.138;2022-12-18T14:09:35;-3.80;99.90
37646;DHT22;23489;49.600;6.138;2022-12-18T14:12:02;-3.80;99.90
37646;DHT22;23489;49.600;6.138;2022-12-18T14:14:49;-3.80;99.90
37646;DHT22;23489;49.600;6.138;2022-12-18T14:17:16;-3.80;99.90
37646;DHT22;23489;49.600;6.138;2022-12-18T14:19:46;-3.90;99.90
37646;DHT22;23489;49.600;6.138;2022-12-18T14:22:22;-4.00;99.90
37646;DHT22;23489;49.600;6.138;2022-12-18T14:27:41;-4.00;99.90
37646;DHT22;23489;49.600;6.138;2022-12-18T14:30:29;-4.10;99.90
37646;DHT22;23489;49.600;6.138;2022-12-18T14:33:01;-4.10;99.90
37646;DHT22;23489;49.600;6.138;2022-12-18T14:35:27;-4.10;99.90
37646;DHT22;23489;49.600;6.138;2022-12-18T14:37:53;-4.10;99.90
37646;DHT22;23489;49.600;6.138;2022-12-18T14:40:19;-4.00;99.90
37646;DHT22;23489;49.600;6.138;2022-12-18T14:42:45;-4.00;99.90
37646;DHT22;23489;49.600;6.138;2022-12-18T14:45:36;-4.10;99.90
37646;DHT22;23489;49.600;6.138;2022-12-18T14:48:32;-4.10;99.90
37646;DHT22;23489;49.600;6.138;2022-12-18T14:51:05;-4.00;99.90
37646;DHT22;23489;49.600;6.138;2022-12-18T14:53:39;-4.10;99.90
37646;DHT22;23489;49.600;6.138;2022-12-18T14:56:17;-4.10;99.90
37646;DHT22;23489;49.600;6.138;2022-12-18T14:59:00;-4.10;99.90
37646;DHT22;23489;49.600;6.138;2022-12-18T15:01:37;-4.10;99.90
37646;DHT22;23489;49.600;6.138;2022-12-18T15:04:05;-4.20;99.90
37646;DHT22;23489;49.600;6.138;2022-12-18T15:06:47;-4.20;99.90
37646;DHT22;23489;49.600;6.138;2022-12-18T15:09:39;-4.20;99.90
37646;DHT22;23489;49.600;6.138;2022-12-18T15:12:24;-4.20;99.90
37646;DHT22;23489;49.600;6.138;2022-12-18T15:14:51;-4.10;99.90
37646;DHT22;23489;49.600;6.138;2022-12-18T15:17:19;-4.10;99.90
37646;DHT22;23489;49.600;6.138;2022-12-18T15:19:48;-4.10;99.90
37646;DHT22;23489;49.600;6.138;2022-12-18T15:22:24;-4.10;99.90
37646;DHT22;23489;49.600;6.138;2022-12-18T15:24:50;-4.20;99.90
37646;DHT22;23489;49.600;6.138;2022-12-18T15:27:42;-4.20;99.90
37646;DHT22;23489;49.600;6.138;2022-12-18T15:32:40;-4.30;99.90
37646;DHT22;23489;49.600;6.138;2022-12-18T15:35:22;-4.30;99.90
37646;DHT22;23489;49.600;6.138;2022-12-18T15:37:49;-4.30;99.90
37646;DHT22;23489;49.600;6.138;2022-12-18T15:40:20;-4.20;99.90
37646;DHT22;23489;49.600;6.138;2022-12-18T15:42:47;-4.20;99.90
37646;DHT22;23489;49.600;6.138;2022-12-18T15:45:32;-4.30;99.90
37646;DHT22;23489;49.600;6.138;2022-12-18T15:47:58;-4.30;99.90
37646;DHT22;23489;49.600;6.138;2022-12-18T15:50:24;-4.30;99.90
37646;DHT22;23489;49.600;6.138;2022-12-18T15:52:52;-4.30;99.90
37646;DHT22;23489;49.600;6.138;2022-12-18T15:55:22;-4.30;99.90
37646;DHT22;23489;49.600;6.138;2022-12-18T15:58:08;-4.30;99.90
37646;DHT22;23489;49.600;6.138;2022-12-18T16:00:37;-4.30;99.90
37646;DHT22;23489;49.600;6.138;2022-12-18T16:03:04;-4.20;99.90
37646;DHT22;23489;49.600;6.138;2022-12-18T16:05:30;-4.30;99.90
37646;DHT22;23489;49.600;6.138;2022-12-18T16:07:56;-4.20;99.90
37646;DHT22;23489;49.600;6.138;2022-12-18T16:10:22;-4.20;99.90
37646;DHT22;23489;49.600;6.138;2022-12-18T16:12:49;-4.20;99.90
37646;DHT22;23489;49.600;6.138;2022-12-18T16:15:15;-4.20;99.90
37646;DHT22;23489;49.600;6.138;2022-12-18T16:17:42;-4.10;99.90
37646;DHT22;23489;49.600;6.138;2022-12-18T16:20:19;-4.10;99.90
37646;DHT22;23489;49.600;6.138;2022-12-18T16:22:46;-4.10;99.90
37646;DHT22;23489;49.600;6.138;2022-12-18T16:25:24;-4.10;99.90
37646;DHT22;23489;49.600;6.138;2022-12-18T16:27:51;-4.10;99.90
37646;DHT22;23489;49.600;6.138;2022-12-18T16:30:23;-4.10;99.90
37646;DHT22;23489;49.600;6.138;2022-12-18T16:32:48;-4.10;99.90
37646;DHT22;23489;49.600;6.138;2022-12-18T16:35:16;-4.10;99.90
37646;DHT22;23489;49.600;6.138;2022-12-18T16:37:42;-4.10;99.90
37646;DHT22;23489;49.600;6.138;2022-12-18T16:40:10;-4.10;99.90
37646;DHT22;23489;49.600;6.138;2022-12-18T16:42:37;-4.10;99.90
37646;DHT22;23489;49.600;6.138;2022-12-18T16:45:05;-4.10;99.90
37646;DHT22;23489;49.600;6.138;2022-12-18T16:47:31;-4.10;99.90
37646;DHT22;23489;49.600;6.138;2022-12-18T16:49:56;-4.10;99.90
37646;DHT22;23489;49.600;6.138;2022-12-18T16:52:22;-4.00;99.90
37646;DHT22;23489;49.600;6.138;2022-12-18T16:54:48;-4.00;99.90
37646;DHT22;23489;49.600;6.138;2022-12-18T16:57:16;-4.00;99.90
37646;DHT22;23489;49.600;6.138;2022-12-18T16:59:42;-4.00;99.90
37646;DHT22;23489;49.600;6.138;2022-12-18T17:02:26;-4.00;99.90
37646;DHT22;23489;49.600;6.138;2022-12-18T17:04:53;-4.00;99.90
37646;DHT22;23489;49.600;6.138;2022-12-18T17:07:19;-3.90;99.90
37646;DHT22;23489;49.600;6.138;2022-12-18T17:09:45;-3.80;99.90
37646;DHT22;23489;49.600;6.138;2022-12-18T17:12:10;-3.80;99.90
37646;DHT22;23489;49.600;6.138;2022-12-18T17:14:36;-3.80;99.90
37646;DHT22;23489;49.600;6.138;2022-12-18T17:17:02;-3.70;99.90
37646;DHT22;23489;49.600;6.138;2022-12-18T17:19:28;-3.70;99.90
37646;DHT22;23489;49.600;6.138;2022-12-18T17:21:54;-3.70;99.90
37646;DHT22;23489;49.600;6.138;2022-12-18T17:24:20;-3.70;99.90